sensor_id;sensor_type;location;lat;lon;timestamp;P1;durP1;ratioP1;P2;durP2;ratioP2
55913;SDS011;58179;48.776;9.124;2024-03-17T00:01:10;18.73;;;7.30;;
55913;SDS011;58179;48.776;9.124;2024-03-17T00:03:36;14.93;;;6.45;;
55913;SDS011;58179;48.776;9.124;2024-03-17T00:06:04;16.13;;;6.53;;
55913;SDS011;58179;48.776;9.124;2024-03-17T00:08:30;16.60;;;7.37;;
55913;SDS011;58179;48.776;9.124;2024-03-17T00:10:56;18.15;;;7.22;;
55913;SDS011;58179;48.776;9.124;2024-03-17T00:13:23;19.20;;;7.47;;
55913;SDS011;58179;48.776;9.124;2024-03-17T00:15:49;16.90;;;6.72;;
55913;SDS011;58179;48.776;9.124;2024-03-17T00:18:16;20.13;;;7.60;;
55913;SDS011;58179;48.776;9.124;2024-03-17T00:20:42;23.05;;;8.05;;
55913;SDS011;58179;48.776;9.124;2024-03-17T00:23:10;18.30;;;7.38;;
55913;SDS011;58179;48.776;9.124;2024-03-17T00:25:37;13.35;;;6.68;;
55913;SDS011;58179;48.776;9.124;2024-03-17T00:28:03;15.73;;;6.25;;
55913;SDS011;58179;48.776;9.124;2024-03-17T00:30:30;13.50;;;5.38;;
55913;SDS011;58179;48.776;9.124;2024-03-17T00:32:56;17.98;;;6.95;;
55913;SDS011;58179;48.776;9.124;2024-03-17T00:35:23;20.48;;;7.65;;
55913;SDS011;58179;48.776;9.124;2024-03-17T00:37:50;20.67;;;7.03;;
55913;SDS011;58179;48.776;9.124;2024-03-17T00:40:18;19.90;;;7.70;;
55913;SDS011;58179;48.776;9.124;2024-03-17T00:42:45;13.70;;;6.25;;
55913;SDS011;58179;48.776;9.124;2024-03-17T00:45:11;13.57;;;5.93;;
55913;SDS011;58179;48.776;9.124;2024-03-17T00:47:37;13.83;;;6.50;;
55913;SDS011;58179;48.776;9.124;2024-03-17T00:50:04;12.55;;;5.75;;
55913;SDS011;58179;48.776;9.124;2024-03-17T00:52:36;15.07;;;6.07;;
55913;SDS011;58179;48.776;9.124;2024-03-17T00:55:03;13.32;;;6.05;;
55913;SDS011;58179;48.776;9.124;2024-03-17T00:57:30;11.63;;;5.60;;
55913;SDS011;58179;48.776;9.124;2024-03-17T00:59:57;11.43;;;5.53;;
55913;SDS011;58179;48.776;9.124;2024-03-17T01:02:23;12.02;;;5.38;;
55913;SDS011;58179;48.776;9.124;2024-03-17T01:04:50;12.40;;;5.70;;
55913;SDS011;58179;48.776;9.124;2024-03-17T01:07:16;13.27;;;6.33;;
55913;SDS011;58179;48.776;9.124;2024-03-17T01:09:42;11.60;;;5.97;;
55913;SDS011;58179;48.776;9.124;2024-03-17T01:12:11;19.27;;;7.20;;
55913;SDS011;58179;48.776;9.124;2024-03-17T01:14:39;20.02;;;8.02;;
55913;SDS011;58179;48.776;9.124;2024-03-17T01:17:05;16.42;;;7.30;;
55913;SDS011;58179;48.776;9.124;2024-03-17T01:19:32;17.98;;;7.93;;
55913;SDS011;58179;48.776;9.124;2024-03-17T01:21:59;17.23;;;7.70;;
55913;SDS011;58179;48.776;9.124;2024-03-17T01:24:27;15.27;;;6.22;;
55913;SDS011;58179;48.776;9.124;2024-03-17T01:26:56;10.18;;;5.35;;
55913;SDS011;58179;48.776;9.124;2024-03-17T01:29:23;12.45;;;6.15;;
55913;SDS011;58179;48.776;9.124;2024-03-17T01:31:50;16.15;;;6.95;;
55913;SDS011;58179;48.776;9.124;2024-03-17T01:34:18;14.38;;;6.53;;
55913;SDS011;58179;48.776;9.124;2024-03-17T01:36:44;18.00;;;6.50;;
55913;SDS011;58179;48.776;9.124;2024-03-17T01:39:10;13.55;;;6.55;;
55913;SDS011;58179;48.776;9.124;2024-03-17T01:41:37;16.85;;;6.95;;
55913;SDS011;58179;48.776;9.124;2024-03-17T01:44:03;15.80;;;6.40;;
55913;SDS011;58179;48.776;9.124;2024-03-17T01:46:29;15.02;;;6.70;;
55913;SDS011;58179;48.776;9.124;2024-03-17T01:48:57;14.68;;;6.28;;
55913;SDS011;58179;48.776;9.124;2024-03-17T01:51:24;12.00;;;5.68;;
55913;SDS011;58179;48.776;9.124;2024-03-17T01:53:50;12.60;;;5.17;;
55913;SDS011;58179;48.776;9.124;2024-03-17T01:56:17;12.10;;;5.07;;
55913;SDS011;58179;48.776;9.124;2024-03-17T01:58:44;10.70;;;4.95;;
55913;SDS011;58179;48.776;9.124;2024-03-17T02:01:10;11.50;;;5.32;;
55913;SDS011;58179;48.776;9.124;2024-03-17T02:03:40;13.38;;;5.82;;
55913;SDS011;58179;48.776;9.124;2024-03-17T02:06:07;13.93;;;5.67;;
55913;SDS011;58179;48.776;9.124;2024-03-17T02:08:46;13.65;;;5.68;;
55913;SDS011;58179;48.776;9.124;2024-03-17T02:11:22;14.40;;;5.57;;
55913;SDS011;58179;48.776;9.124;2024-03-17T02:13:51;12.90;;;5.25;;
55913;SDS011;58179;48.776;9.124;2024-03-17T02:16:17;10.88;;;4.70;;
55913;SDS011;58179;48.776;9.124;2024-03-17T02:18:44;15.77;;;6.68;;
55913;SDS011;58179;48.776;9.124;2024-03-17T02:21:12;16.98;;;6.18;;
55913;SDS011;58179;48.776;9.124;2024-03-17T02:23:41;16.10;;;6.30;;
55913;SDS011;58179;48.776;9.124;2024-03-17T02:26:07;13.18;;;5.95;;
55913;SDS011;58179;48.776;9.124;2024-03-17T02:28:40;14.73;;;5.80;;
55913;SDS011;58179;48.776;9.124;2024-03-17T02:31:07;18.48;;;6.75;;
55913;SDS011;58179;48.776;9.124;2024-03-17T02:33:35;17.30;;;7.30;;
55913;SDS011;58179;48.776;9.124;2024-03-17T02:36:01;16.08;;;6.05;;
55913;SDS011;58179;48.776;9.124;2024-03-17T02:38:29;20.37;;;7.60;;
55913;SDS011;58179;48.776;9.124;2024-03-17T02:41:15;23.52;;;9.35;;
55913;SDS011;58179;48.776;9.124;2024-03-17T02:43:42;23.08;;;8.00;;
55913;SDS011;58179;48.776;9.124;2024-03-17T02:46:10;25.70;;;8.90;;
55913;SDS011;58179;48.776;9.124;2024-03-17T02:48:37;28.35;;;9.35;;
55913;SDS011;58179;48.776;9.124;2024-03-17T02:51:09;25.00;;;8.95;;
55913;SDS011;58179;48.776;9.124;2024-03-17T02:53:37;31.88;;;10.70;;
55913;SDS011;58179;48.776;9.124;2024-03-17T02:56:04;29.48;;;9.82;;
55913;SDS011;58179;48.776;9.124;2024-03-17T02:58:33;31.90;;;9.80;;
55913;SDS011;58179;48.776;9.124;2024-03-17T03:00:59;29.92;;;9.43;;
55913;SDS011;58179;48.776;9.124;2024-03-17T03:03:25;34.67;;;9.88;;
55913;SDS011;58179;48.776;9.124;2024-03-17T03:05:52;60.55;;;15.13;;
55913;SDS011;58179;48.776;9.124;2024-03-17T03:08:18;62.67;;;17.48;;
55913;SDS011;58179;48.776;9.124;2024-03-17T03:10:44;54.70;;;15.77;;
55913;SDS011;58179;48.776;9.124;2024-03-17T03:13:10;55.40;;;16.02;;
55913;SDS011;58179;48.776;9.124;2024-03-17T03:15:38;58.08;;;17.02;;
55913;SDS011;58179;48.776;9.124;2024-03-17T03:18:04;50.22;;;15.27;;
55913;SDS011;58179;48.776;9.124;2024-03-17T03:20:30;40.95;;;13.00;;
55913;SDS011;58179;48.776;9.124;2024-03-17T03:22:56;56.33;;;17.05;;
55913;SDS011;58179;48.776;9.124;2024-03-17T03:25:22;63.63;;;15.93;;
55913;SDS011;58179;48.776;9.124;2024-03-17T03:27:49;72.17;;;19.13;;
55913;SDS011;58179;48.776;9.124;2024-03-17T03:30:16;70.80;;;19.25;;
55913;SDS011;58179;48.776;9.124;2024-03-17T03:32:47;56.08;;;16.48;;
55913;SDS011;58179;48.776;9.124;2024-03-17T03:35:13;56.03;;;16.65;;
55913;SDS011;58179;48.776;9.124;2024-03-17T03:37:39;65.55;;;18.65;;
55913;SDS011;58179;48.776;9.124;2024-03-17T03:40:06;60.33;;;17.77;;
55913;SDS011;58179;48.776;9.124;2024-03-17T03:42:41;52.47;;;16.13;;
55913;SDS011;58179;48.776;9.124;2024-03-17T03:45:08;45.30;;;13.05;;
55913;SDS011;58179;48.776;9.124;2024-03-17T03:47:37;56.38;;;14.95;;
55913;SDS011;58179;48.776;9.124;2024-03-17T03:50:05;54.65;;;15.05;;
55913;SDS011;58179;48.776;9.124;2024-03-17T03:52:33;65.75;;;18.58;;
55913;SDS011;58179;48.776;9.124;2024-03-17T03:54:59;76.40;;;21.17;;
55913;SDS011;58179;48.776;9.124;2024-03-17T03:57:26;66.25;;;18.40;;
55913;SDS011;58179;48.776;9.124;2024-03-17T03:59:54;68.68;;;19.27;;
55913;SDS011;58179;48.776;9.124;2024-03-17T04:02:20;60.97;;;16.95;;
55913;SDS011;58179;48.776;9.124;2024-03-17T04:04:47;50.53;;;15.63;;
55913;SDS011;58179;48.776;9.124;2024-03-17T04:07:14;57.70;;;16.60;;
55913;SDS011;58179;48.776;9.124;2024-03-17T04:09:41;45.20;;;13.63;;
55913;SDS011;58179;48.776;9.124;2024-03-17T04:12:07;44.63;;;14.73;;
55913;SDS011;58179;48.776;9.124;2024-03-17T04:14:33;42.30;;;13.07;;
55913;SDS011;58179;48.776;9.124;2024-03-17T04:17:00;39.35;;;11.85;;
55913;SDS011;58179;48.776;9.124;2024-03-17T04:19:28;47.03;;;14.18;;
55913;SDS011;58179;48.776;9.124;2024-03-17T04:21:55;44.90;;;14.40;;
55913;SDS011;58179;48.776;9.124;2024-03-17T04:24:22;47.90;;;14.73;;
55913;SDS011;58179;48.776;9.124;2024-03-17T04:26:48;42.42;;;13.35;;
55913;SDS011;58179;48.776;9.124;2024-03-17T04:29:15;41.33;;;12.38;;
55913;SDS011;58179;48.776;9.124;2024-03-17T04:31:41;35.40;;;11.73;;
55913;SDS011;58179;48.776;9.124;2024-03-17T04:34:07;29.85;;;10.07;;
55913;SDS011;58179;48.776;9.124;2024-03-17T04:36:34;24.10;;;8.45;;
55913;SDS011;58179;48.776;9.124;2024-03-17T04:39:00;24.40;;;8.60;;
55913;SDS011;58179;48.776;9.124;2024-03-17T04:41:27;59.90;;;16.38;;
55913;SDS011;58179;48.776;9.124;2024-03-17T04:43:53;51.00;;;14.80;;
55913;SDS011;58179;48.776;9.124;2024-03-17T04:46:19;55.28;;;16.17;;
55913;SDS011;58179;48.776;9.124;2024-03-17T04:48:45;59.47;;;16.55;;
55913;SDS011;58179;48.776;9.124;2024-03-17T04:51:14;45.60;;;13.73;;
55913;SDS011;58179;48.776;9.124;2024-03-17T04:53:41;53.33;;;15.60;;
55913;SDS011;58179;48.776;9.124;2024-03-17T04:56:07;46.38;;;14.27;;
55913;SDS011;58179;48.776;9.124;2024-03-17T04:58:35;36.40;;;12.00;;
55913;SDS011;58179;48.776;9.124;2024-03-17T05:01:05;36.40;;;11.60;;
55913;SDS011;58179;48.776;9.124;2024-03-17T05:03:31;40.33;;;12.57;;
55913;SDS011;58179;48.776;9.124;2024-03-17T05:05:58;42.10;;;14.65;;
55913;SDS011;58179;48.776;9.124;2024-03-17T05:08:27;54.28;;;17.05;;
55913;SDS011;58179;48.776;9.124;2024-03-17T05:10:55;54.45;;;17.50;;
55913;SDS011;58179;48.776;9.124;2024-03-17T05:13:22;60.17;;;17.67;;
55913;SDS011;58179;48.776;9.124;2024-03-17T05:15:50;61.90;;;20.58;;
55913;SDS011;58179;48.776;9.124;2024-03-17T05:18:16;69.75;;;23.35;;
55913;SDS011;58179;48.776;9.124;2024-03-17T05:20:42;68.63;;;21.40;;
55913;SDS011;58179;48.776;9.124;2024-03-17T05:23:08;61.83;;;20.60;;
55913;SDS011;58179;48.776;9.124;2024-03-17T05:25:35;66.93;;;21.42;;
55913;SDS011;58179;48.776;9.124;2024-03-17T05:28:02;71.22;;;21.35;;
55913;SDS011;58179;48.776;9.124;2024-03-17T05:30:29;69.45;;;21.25;;
55913;SDS011;58179;48.776;9.124;2024-03-17T05:32:57;77.53;;;22.67;;
55913;SDS011;58179;48.776;9.124;2024-03-17T05:35:23;75.05;;;23.60;;
55913;SDS011;58179;48.776;9.124;2024-03-17T05:37:50;63.30;;;20.92;;
55913;SDS011;58179;48.776;9.124;2024-03-17T05:40:16;55.90;;;19.00;;
55913;SDS011;58179;48.776;9.124;2024-03-17T05:42:42;65.88;;;19.00;;
55913;SDS011;58179;48.776;9.124;2024-03-17T05:45:08;74.33;;;21.77;;
55913;SDS011;58179;48.776;9.124;2024-03-17T05:47:36;80.60;;;24.67;;
55913;SDS011;58179;48.776;9.124;2024-03-17T05:50:04;71.18;;;21.67;;
55913;SDS011;58179;48.776;9.124;2024-03-17T05:52:30;56.88;;;18.20;;
55913;SDS011;58179;48.776;9.124;2024-03-17T05:54:56;51.80;;;17.65;;
55913;SDS011;58179;48.776;9.124;2024-03-17T05:57:23;46.58;;;15.50;;
55913;SDS011;58179;48.776;9.124;2024-03-17T05:59:49;50.03;;;16.23;;
55913;SDS011;58179;48.776;9.124;2024-03-17T06:02:15;56.25;;;17.38;;
55913;SDS011;58179;48.776;9.124;2024-03-17T06:04:43;44.33;;;15.32;;
55913;SDS011;58179;48.776;9.124;2024-03-17T06:07:11;51.50;;;16.63;;
55913;SDS011;58179;48.776;9.124;2024-03-17T06:09:37;47.78;;;15.65;;
55913;SDS011;58179;48.776;9.124;2024-03-17T06:12:03;44.85;;;15.43;;
55913;SDS011;58179;48.776;9.124;2024-03-17T06:14:31;55.33;;;16.70;;
55913;SDS011;58179;48.776;9.124;2024-03-17T06:16:59;62.28;;;19.65;;
55913;SDS011;58179;48.776;9.124;2024-03-17T06:19:25;54.85;;;16.58;;
55913;SDS011;58179;48.776;9.124;2024-03-17T06:21:51;52.47;;;17.27;;
55913;SDS011;58179;48.776;9.124;2024-03-17T06:24:19;48.83;;;15.95;;
55913;SDS011;58179;48.776;9.124;2024-03-17T06:26:45;46.95;;;16.23;;
55913;SDS011;58179;48.776;9.124;2024-03-17T06:29:13;54.08;;;18.13;;
55913;SDS011;58179;48.776;9.124;2024-03-17T06:31:40;54.10;;;16.90;;
55913;SDS011;58179;48.776;9.124;2024-03-17T06:34:06;46.42;;;16.58;;
55913;SDS011;58179;48.776;9.124;2024-03-17T06:36:32;40.05;;;14.40;;
55913;SDS011;58179;48.776;9.124;2024-03-17T06:38:58;38.83;;;13.55;;
55913;SDS011;58179;48.776;9.124;2024-03-17T06:41:25;37.17;;;14.20;;
55913;SDS011;58179;48.776;9.124;2024-03-17T06:43:51;38.88;;;13.77;;
55913;SDS011;58179;48.776;9.124;2024-03-17T06:46:18;34.55;;;12.45;;
55913;SDS011;58179;48.776;9.124;2024-03-17T06:48:44;30.23;;;11.45;;
55913;SDS011;58179;48.776;9.124;2024-03-17T06:51:11;25.45;;;9.07;;
55913;SDS011;58179;48.776;9.124;2024-03-17T06:53:37;21.48;;;8.40;;
55913;SDS011;58179;48.776;9.124;2024-03-17T06:56:03;29.20;;;11.35;;
55913;SDS011;58179;48.776;9.124;2024-03-17T06:58:32;24.55;;;9.13;;
55913;SDS011;58179;48.776;9.124;2024-03-17T07:00:58;23.33;;;9.30;;
55913;SDS011;58179;48.776;9.124;2024-03-17T07:03:26;18.75;;;8.10;;
55913;SDS011;58179;48.776;9.124;2024-03-17T07:05:53;23.65;;;9.02;;
55913;SDS011;58179;48.776;9.124;2024-03-17T07:08:20;13.35;;;6.28;;
55913;SDS011;58179;48.776;9.124;2024-03-17T07:10:59;18.33;;;7.80;;
55913;SDS011;58179;48.776;9.124;2024-03-17T07:13:28;16.80;;;6.90;;
55913;SDS011;58179;48.776;9.124;2024-03-17T07:15:57;10.55;;;5.68;;
55913;SDS011;58179;48.776;9.124;2024-03-17T07:18:26;11.02;;;5.45;;
55913;SDS011;58179;48.776;9.124;2024-03-17T07:20:52;13.73;;;6.80;;
55913;SDS011;58179;48.776;9.124;2024-03-17T07:23:21;8.07;;;4.57;;
55913;SDS011;58179;48.776;9.124;2024-03-17T07:25:53;8.13;;;4.72;;
55913;SDS011;58179;48.776;9.124;2024-03-17T07:28:20;12.05;;;5.93;;
55913;SDS011;58179;48.776;9.124;2024-03-17T07:30:47;8.50;;;4.70;;
55913;SDS011;58179;48.776;9.124;2024-03-17T07:33:16;17.83;;;8.18;;
55913;SDS011;58179;48.776;9.124;2024-03-17T07:35:46;11.35;;;6.35;;
55913;SDS011;58179;48.776;9.124;2024-03-17T07:38:13;13.00;;;7.03;;
55913;SDS011;58179;48.776;9.124;2024-03-17T07:40:40;14.73;;;8.60;;
55913;SDS011;58179;48.776;9.124;2024-03-17T07:43:07;24.13;;;11.70;;
55913;SDS011;58179;48.776;9.124;2024-03-17T07:45:33;22.08;;;10.38;;
55913;SDS011;58179;48.776;9.124;2024-03-17T07:47:59;17.13;;;9.27;;
55913;SDS011;58179;48.776;9.124;2024-03-17T07:50:27;12.63;;;7.93;;
55913;SDS011;58179;48.776;9.124;2024-03-17T07:52:53;16.95;;;10.13;;
55913;SDS011;58179;48.776;9.124;2024-03-17T07:55:19;18.35;;;11.32;;
55913;SDS011;58179;48.776;9.124;2024-03-17T07:57:45;17.02;;;9.75;;
55913;SDS011;58179;48.776;9.124;2024-03-17T08:00:12;23.98;;;13.50;;
55913;SDS011;58179;48.776;9.124;2024-03-17T08:02:41;21.80;;;11.00;;
55913;SDS011;58179;48.776;9.124;2024-03-17T08:05:09;19.45;;;12.18;;
55913;SDS011;58179;48.776;9.124;2024-03-17T08:07:37;24.70;;;12.32;;
55913;SDS011;58179;48.776;9.124;2024-03-17T08:10:03;18.97;;;11.00;;
55913;SDS011;58179;48.776;9.124;2024-03-17T08:12:30;13.90;;;9.80;;
55913;SDS011;58179;48.776;9.124;2024-03-17T08:14:56;12.15;;;8.27;;
55913;SDS011;58179;48.776;9.124;2024-03-17T08:17:23;8.95;;;6.35;;
55913;SDS011;58179;48.776;9.124;2024-03-17T08:19:49;13.65;;;9.18;;
55913;SDS011;58179;48.776;9.124;2024-03-17T08:22:15;11.32;;;8.00;;
55913;SDS011;58179;48.776;9.124;2024-03-17T08:24:42;15.90;;;10.20;;
55913;SDS011;58179;48.776;9.124;2024-03-17T08:27:08;17.92;;;10.65;;
55913;SDS011;58179;48.776;9.124;2024-03-17T08:29:34;20.20;;;12.23;;
55913;SDS011;58179;48.776;9.124;2024-03-17T08:32:01;19.27;;;11.67;;
55913;SDS011;58179;48.776;9.124;2024-03-17T08:34:27;16.45;;;10.63;;
55913;SDS011;58179;48.776;9.124;2024-03-17T08:36:53;14.57;;;9.23;;
55913;SDS011;58179;48.776;9.124;2024-03-17T08:39:19;18.92;;;11.35;;
55913;SDS011;58179;48.776;9.124;2024-03-17T08:41:46;16.60;;;11.05;;
55913;SDS011;58179;48.776;9.124;2024-03-17T08:44:13;18.67;;;10.75;;
55913;SDS011;58179;48.776;9.124;2024-03-17T08:46:39;12.85;;;8.57;;
55913;SDS011;58179;48.776;9.124;2024-03-17T08:49:05;12.30;;;7.97;;
55913;SDS011;58179;48.776;9.124;2024-03-17T08:51:31;13.88;;;8.30;;
55913;SDS011;58179;48.776;9.124;2024-03-17T08:53:57;10.63;;;7.25;;
55913;SDS011;58179;48.776;9.124;2024-03-17T08:56:23;7.30;;;5.20;;
55913;SDS011;58179;48.776;9.124;2024-03-17T08:58:51;8.32;;;5.13;;
55913;SDS011;58179;48.776;9.124;2024-03-17T09:01:17;6.00;;;4.40;;
55913;SDS011;58179;48.776;9.124;2024-03-17T09:03:43;4.00;;;3.40;;
55913;SDS011;58179;48.776;9.124;2024-03-17T09:06:16;4.73;;;3.33;;
55913;SDS011;58179;48.776;9.124;2024-03-17T09:08:44;5.18;;;3.25;;
55913;SDS011;58179;48.776;9.124;2024-03-17T09:11:11;5.65;;;3.97;;
55913;SDS011;58179;48.776;9.124;2024-03-17T09:13:38;3.72;;;2.92;;
55913;SDS011;58179;48.776;9.124;2024-03-17T09:16:06;3.47;;;2.77;;
55913;SDS011;58179;48.776;9.124;2024-03-17T09:18:36;5.55;;;3.85;;
55913;SDS011;58179;48.776;9.124;2024-03-17T09:21:03;7.03;;;4.93;;
55913;SDS011;58179;48.776;9.124;2024-03-17T09:23:32;7.57;;;5.13;;
55913;SDS011;58179;48.776;9.124;2024-03-17T09:25:59;6.10;;;4.38;;
55913;SDS011;58179;48.776;9.124;2024-03-17T09:28:27;4.77;;;3.37;;
55913;SDS011;58179;48.776;9.124;2024-03-17T09:30:53;5.70;;;3.55;;
55913;SDS011;58179;48.776;9.124;2024-03-17T09:33:21;5.18;;;3.47;;
55913;SDS011;58179;48.776;9.124;2024-03-17T09:35:55;4.13;;;3.30;;
55913;SDS011;58179;48.776;9.124;2024-03-17T09:38:22;4.43;;;3.60;;
55913;SDS011;58179;48.776;9.124;2024-03-17T09:40:49;5.60;;;3.70;;
55913;SDS011;58179;48.776;9.124;2024-03-17T09:43:18;3.85;;;3.20;;
55913;SDS011;58179;48.776;9.124;2024-03-17T09:45:45;4.03;;;3.30;;
55913;SDS011;58179;48.776;9.124;2024-03-17T09:48:13;3.42;;;2.90;;
55913;SDS011;58179;48.776;9.124;2024-03-17T09:50:43;2.60;;;2.20;;
55913;SDS011;58179;48.776;9.124;2024-03-17T09:53:15;2.17;;;1.97;;
55913;SDS011;58179;48.776;9.124;2024-03-17T09:55:43;2.40;;;2.20;;
55913;SDS011;58179;48.776;9.124;2024-03-17T09:58:09;2.35;;;2.15;;
55913;SDS011;58179;48.776;9.124;2024-03-17T10:00:44;3.20;;;2.20;;
55913;SDS011;58179;48.776;9.124;2024-03-17T10:03:11;2.80;;;2.33;;
55913;SDS011;58179;48.776;9.124;2024-03-17T10:05:38;3.03;;;2.65;;
55913;SDS011;58179;48.776;9.124;2024-03-17T10:08:05;2.63;;;2.30;;
55913;SDS011;58179;48.776;9.124;2024-03-17T10:10:45;2.97;;;2.17;;
55913;SDS011;58179;48.776;9.124;2024-03-17T10:13:18;2.85;;;2.10;;
55913;SDS011;58179;48.776;9.124;2024-03-17T10:15:47;5.13;;;2.50;;
55913;SDS011;58179;48.776;9.124;2024-03-17T10:18:19;3.50;;;2.60;;
55913;SDS011;58179;48.776;9.124;2024-03-17T10:20:47;3.60;;;3.00;;
55913;SDS011;58179;48.776;9.124;2024-03-17T10:23:18;3.33;;;2.80;;
55913;SDS011;58179;48.776;9.124;2024-03-17T10:25:45;4.53;;;3.42;;
55913;SDS011;58179;48.776;9.124;2024-03-17T10:28:11;3.40;;;2.80;;
55913;SDS011;58179;48.776;9.124;2024-03-17T10:30:38;3.00;;;2.67;;
55913;SDS011;58179;48.776;9.124;2024-03-17T10:33:05;2.60;;;2.30;;
55913;SDS011;58179;48.776;9.124;2024-03-17T10:35:37;3.00;;;2.22;;
55913;SDS011;58179;48.776;9.124;2024-03-17T10:38:08;2.00;;;1.80;;
55913;SDS011;58179;48.776;9.124;2024-03-17T10:40:39;5.68;;;3.40;;
55913;SDS011;58179;48.776;9.124;2024-03-17T10:43:06;6.43;;;4.38;;
55913;SDS011;58179;48.776;9.124;2024-03-17T10:45:33;8.15;;;4.50;;
55913;SDS011;58179;48.776;9.124;2024-03-17T10:48:04;5.57;;;3.42;;
55913;SDS011;58179;48.776;9.124;2024-03-17T10:50:37;3.90;;;2.83;;
55913;SDS011;58179;48.776;9.124;2024-03-17T10:53:04;3.85;;;2.70;;
55913;SDS011;58179;48.776;9.124;2024-03-17T10:55:37;2.90;;;2.10;;
55913;SDS011;58179;48.776;9.124;2024-03-17T10:58:12;2.90;;;2.10;;
55913;SDS011;58179;48.776;9.124;2024-03-17T11:00:59;1.88;;;1.67;;
55913;SDS011;58179;48.776;9.124;2024-03-17T11:03:32;2.33;;;1.88;;
55913;SDS011;58179;48.776;9.124;2024-03-17T11:06:05;2.92;;;1.85;;
55913;SDS011;58179;48.776;9.124;2024-03-17T11:08:33;2.90;;;1.87;;
55913;SDS011;58179;48.776;9.124;2024-03-17T11:11:02;4.80;;;2.60;;
55913;SDS011;58179;48.776;9.124;2024-03-17T11:13:29;3.67;;;2.00;;
55913;SDS011;58179;48.776;9.124;2024-03-17T11:15:56;2.55;;;1.90;;
55913;SDS011;58179;48.776;9.124;2024-03-17T11:23:57;3.92;;;1.63;;
55913;SDS011;58179;48.776;9.124;2024-03-17T11:26:30;2.33;;;1.52;;
55913;SDS011;58179;48.776;9.124;2024-03-17T11:28:58;1.60;;;1.25;;
55913;SDS011;58179;48.776;9.124;2024-03-17T11:31:36;2.30;;;2.00;;
55913;SDS011;58179;48.776;9.124;2024-03-17T11:34:07;2.72;;;1.92;;
55913;SDS011;58179;48.776;9.124;2024-03-17T11:36:53;2.50;;;2.08;;
55913;SDS011;58179;48.776;9.124;2024-03-17T11:39:20;4.82;;;2.10;;
55913;SDS011;58179;48.776;9.124;2024-03-17T11:41:52;5.28;;;2.47;;
55913;SDS011;58179;48.776;9.124;2024-03-17T11:44:25;2.63;;;2.10;;
55913;SDS011;58179;48.776;9.124;2024-03-17T11:46:54;3.10;;;2.10;;
55913;SDS011;58179;48.776;9.124;2024-03-17T11:49:23;3.85;;;2.20;;
55913;SDS011;58179;48.776;9.124;2024-03-17T11:51:51;2.50;;;1.80;;
55913;SDS011;58179;48.776;9.124;2024-03-17T11:54:18;2.55;;;1.90;;
55913;SDS011;58179;48.776;9.124;2024-03-17T11:56:47;3.50;;;2.10;;
55913;SDS011;58179;48.776;9.124;2024-03-17T11:59:16;2.33;;;1.77;;
55913;SDS011;58179;48.776;9.124;2024-03-17T12:01:43;2.47;;;1.90;;
55913;SDS011;58179;48.776;9.124;2024-03-17T12:04:10;3.00;;;1.90;;
55913;SDS011;58179;48.776;9.124;2024-03-17T12:06:38;2.15;;;1.73;;
55913;SDS011;58179;48.776;9.124;2024-03-17T12:09:08;2.33;;;1.90;;
55913;SDS011;58179;48.776;9.124;2024-03-17T12:11:36;2.83;;;2.03;;
55913;SDS011;58179;48.776;9.124;2024-03-17T12:14:19;1.40;;;1.30;;
55913;SDS011;58179;48.776;9.124;2024-03-17T12:16:49;4.30;;;1.67;;
55913;SDS011;58179;48.776;9.124;2024-03-17T12:19:17;1.90;;;1.63;;
55913;SDS011;58179;48.776;9.124;2024-03-17T12:21:44;4.13;;;2.55;;
55913;SDS011;58179;48.776;9.124;2024-03-17T12:24:15;4.73;;;2.47;;
55913;SDS011;58179;48.776;9.124;2024-03-17T12:26:43;3.65;;;2.40;;
55913;SDS011;58179;48.776;9.124;2024-03-17T12:29:23;3.40;;;2.38;;
55913;SDS011;58179;48.776;9.124;2024-03-17T12:31:52;9.45;;;4.75;;
55913;SDS011;58179;48.776;9.124;2024-03-17T12:34:20;6.30;;;3.38;;
55913;SDS011;58179;48.776;9.124;2024-03-17T12:36:47;4.80;;;2.90;;
55913;SDS011;58179;48.776;9.124;2024-03-17T12:39:16;4.03;;;2.45;;
55913;SDS011;58179;48.776;9.124;2024-03-17T12:41:44;2.20;;;1.90;;
55913;SDS011;58179;48.776;9.124;2024-03-17T12:44:24;2.90;;;2.30;;
55913;SDS011;58179;48.776;9.124;2024-03-17T12:46:54;3.53;;;2.60;;
55913;SDS011;58179;48.776;9.124;2024-03-17T12:49:21;3.10;;;2.30;;
55913;SDS011;58179;48.776;9.124;2024-03-17T12:51:50;2.20;;;1.92;;
55913;SDS011;58179;48.776;9.124;2024-03-17T12:54:17;2.17;;;1.92;;
55913;SDS011;58179;48.776;9.124;2024-03-17T12:56:46;1.90;;;1.70;;
55913;SDS011;58179;48.776;9.124;2024-03-17T12:59:39;3.35;;;1.85;;
55913;SDS011;58179;48.776;9.124;2024-03-17T13:02:24;3.08;;;1.90;;
55913;SDS011;58179;48.776;9.124;2024-03-17T13:07:42;2.67;;;2.00;;
55913;SDS011;58179;48.776;9.124;2024-03-17T13:10:13;1.45;;;1.35;;
55913;SDS011;58179;48.776;9.124;2024-03-17T13:12:41;2.30;;;1.88;;
55913;SDS011;58179;48.776;9.124;2024-03-17T13:15:10;1.90;;;1.60;;
55913;SDS011;58179;48.776;9.124;2024-03-17T13:17:38;2.45;;;2.00;;
55913;SDS011;58179;48.776;9.124;2024-03-17T13:20:06;4.00;;;2.53;;
55913;SDS011;58179;48.776;9.124;2024-03-17T13:22:37;2.95;;;2.50;;
55913;SDS011;58179;48.776;9.124;2024-03-17T13:25:11;2.73;;;2.23;;
55913;SDS011;58179;48.776;9.124;2024-03-17T13:27:40;2.40;;;1.73;;
55913;SDS011;58179;48.776;9.124;2024-03-17T13:30:07;3.00;;;1.70;;
55913;SDS011;58179;48.776;9.124;2024-03-17T13:32:35;2.53;;;2.00;;
55913;SDS011;58179;48.776;9.124;2024-03-17T13:35:01;4.20;;;2.92;;
55913;SDS011;58179;48.776;9.124;2024-03-17T13:37:28;2.20;;;1.90;;
55913;SDS011;58179;48.776;9.124;2024-03-17T13:39:54;2.45;;;1.70;;
55913;SDS011;58179;48.776;9.124;2024-03-17T13:42:20;3.13;;;1.70;;
55913;SDS011;58179;48.776;9.124;2024-03-17T13:44:47;2.63;;;1.97;;
55913;SDS011;58179;48.776;9.124;2024-03-17T13:47:14;2.78;;;1.67;;
55913;SDS011;58179;48.776;9.124;2024-03-17T13:49:42;1.95;;;1.33;;
55913;SDS011;58179;48.776;9.124;2024-03-17T13:52:09;3.88;;;2.15;;
55913;SDS011;58179;48.776;9.124;2024-03-17T13:54:35;4.07;;;2.38;;
55913;SDS011;58179;48.776;9.124;2024-03-17T13:57:02;3.85;;;2.15;;
55913;SDS011;58179;48.776;9.124;2024-03-17T13:59:29;2.05;;;1.35;;
55913;SDS011;58179;48.776;9.124;2024-03-17T14:01:57;2.90;;;1.90;;
55913;SDS011;58179;48.776;9.124;2024-03-17T14:04:24;4.93;;;1.85;;
55913;SDS011;58179;48.776;9.124;2024-03-17T14:06:52;2.53;;;1.63;;
55913;SDS011;58179;48.776;9.124;2024-03-17T14:09:20;2.10;;;1.60;;
55913;SDS011;58179;48.776;9.124;2024-03-17T14:11:47;2.03;;;1.30;;
55913;SDS011;58179;48.776;9.124;2024-03-17T14:14:15;1.55;;;1.17;;
55913;SDS011;58179;48.776;9.124;2024-03-17T14:16:42;1.40;;;1.20;;
55913;SDS011;58179;48.776;9.124;2024-03-17T14:19:09;1.77;;;1.40;;
55913;SDS011;58179;48.776;9.124;2024-03-17T14:21:37;1.77;;;1.38;;
55913;SDS011;58179;48.776;9.124;2024-03-17T14:24:03;3.65;;;2.40;;
55913;SDS011;58179;48.776;9.124;2024-03-17T14:26:32;2.40;;;1.88;;
55913;SDS011;58179;48.776;9.124;2024-03-17T14:28:58;2.70;;;2.00;;
55913;SDS011;58179;48.776;9.124;2024-03-17T14:31:26;3.58;;;1.80;;
55913;SDS011;58179;48.776;9.124;2024-03-17T14:33:55;2.05;;;1.52;;
55913;SDS011;58179;48.776;9.124;2024-03-17T14:36:21;3.85;;;1.80;;
55913;SDS011;58179;48.776;9.124;2024-03-17T14:38:53;2.60;;;1.70;;
55913;SDS011;58179;48.776;9.124;2024-03-17T14:41:19;1.60;;;1.50;;
55913;SDS011;58179;48.776;9.124;2024-03-17T14:43:45;2.27;;;1.50;;
55913;SDS011;58179;48.776;9.124;2024-03-17T14:46:11;1.73;;;1.40;;
55913;SDS011;58179;48.776;9.124;2024-03-17T14:48:38;2.35;;;1.50;;